sensor_id;sensor_type;location;lat;lon;timestamp;P1;durP1;ratioP1;P2;durP2;ratioP2
38567;SDS011;24338;48.280;10.970;2022-08-25T15:32:09;9.88;;;5.40;;
38567;SDS011;24338;48.280;10.970;2022-08-25T15:34:36;9.20;;;4.75;;
38567;SDS011;24338;48.280;10.970;2022-08-25T15:37:09;6.63;;;4.65;;
38567;SDS011;24338;48.280;10.970;2022-08-25T15:39:39;10.10;;;4.38;;
38567;SDS011;24338;48.280;10.970;2022-08-25T15:42:09;6.60;;;3.75;;
38567;SDS011;24338;48.280;10.970;2022-08-25T15:44:37;10.73;;;4.65;;
38567;SDS011;24338;48.280;10.970;2022-08-25T15:47:06;10.65;;;4.10;;
38567;SDS011;24338;48.280;10.970;2022-08-25T15:49:37;7.65;;;4.10;;
38567;SDS011;24338;48.280;10.970;2022-08-25T15:52:04;7.20;;;3.95;;
38567;SDS011;24338;48.280;10.970;2022-08-25T15:54:31;8.75;;;4.57;;
38567;SDS011;24338;48.280;10.970;2022-08-25T15:56:58;12.10;;;4.45;;
38567;SDS011;24338;48.280;10.970;2022-08-25T15:59:26;6.30;;;4.35;;
38567;SDS011;24338;48.280;10.970;2022-08-25T16:01:53;9.27;;;4.65;;
38567;SDS011;24338;48.280;10.970;2022-08-25T16:04:25;9.85;;;4.63;;
38567;SDS011;24338;48.280;10.970;2022-08-25T16:06:53;12.32;;;4.63;;
38567;SDS011;24338;48.280;10.970;2022-08-25T16:09:20;10.88;;;4.28;;
38567;SDS011;24338;48.280;10.970;2022-08-25T16:11:49;10.68;;;4.80;;
38567;SDS011;24338;48.280;10.970;2022-08-25T16:14:24;9.65;;;4.95;;
38567;SDS011;24338;48.280;10.970;2022-08-25T16:16:53;11.13;;;4.90;;
38567;SDS011;24338;48.280;10.970;2022-08-25T16:19:25;13.85;;;6.10;;
38567;SDS011;24338;48.280;10.970;2022-08-25T16:21:53;9.00;;;5.40;;
38567;SDS011;24338;48.280;10.970;2022-08-25T16:24:20;10.93;;;5.38;;
38567;SDS011;24338;48.280;10.970;2022-08-25T16:26:47;14.38;;;5.30;;
38567;SDS011;24338;48.280;10.970;2022-08-25T16:29:17;9.10;;;4.90;;
38567;SDS011;24338;48.280;10.970;2022-08-25T16:31:45;9.95;;;5.50;;
38567;SDS011;24338;48.280;10.970;2022-08-25T16:34:18;9.18;;;5.07;;
38567;SDS011;24338;48.280;10.970;2022-08-25T16:36:45;16.27;;;5.93;;
38567;SDS011;24338;48.280;10.970;2022-08-25T16:39:17;10.00;;;4.95;;
38567;SDS011;24338;48.280;10.970;2022-08-25T16:41:49;12.45;;;5.63;;
38567;SDS011;24338;48.280;10.970;2022-08-25T16:44:34;12.43;;;6.00;;
38567;SDS011;24338;48.280;10.970;2022-08-25T16:47:06;8.80;;;5.45;;
38567;SDS011;24338;48.280;10.970;2022-08-25T16:49:34;10.85;;;5.75;;
38567;SDS011;24338;48.280;10.970;2022-08-25T16:52:03;17.33;;;6.63;;
38567;SDS011;24338;48.280;10.970;2022-08-25T16:54:53;13.95;;;6.03;;
38567;SDS011;24338;48.280;10.970;2022-08-25T16:57:44;13.85;;;6.05;;
38567;SDS011;24338;48.280;10.970;2022-08-25T17:00:16;15.25;;;6.28;;
38567;SDS011;24338;48.280;10.970;2022-08-25T17:02:44;19.03;;;6.03;;
38567;SDS011;24338;48.280;10.970;2022-08-25T17:05:13;11.88;;;5.43;;
38567;SDS011;24338;48.280;10.970;2022-08-25T17:07:40;8.25;;;5.13;;
38567;SDS011;24338;48.280;10.970;2022-08-25T17:10:07;15.43;;;6.80;;
38567;SDS011;24338;48.280;10.970;2022-08-25T17:12:38;12.25;;;6.20;;
38567;SDS011;24338;48.280;10.970;2022-08-25T17:15:05;15.18;;;6.13;;
38567;SDS011;24338;48.280;10.970;2022-08-25T17:17:33;18.10;;;6.95;;
38567;SDS011;24338;48.280;10.970;2022-08-25T17:20:02;16.98;;;6.53;;
38567;SDS011;24338;48.280;10.970;2022-08-25T17:22:30;15.48;;;6.55;;
38567;SDS011;24338;48.280;10.970;2022-08-25T17:24:57;15.43;;;6.10;;
38567;SDS011;24338;48.280;10.970;2022-08-25T17:27:26;10.27;;;6.43;;
38567;SDS011;24338;48.280;10.970;2022-08-25T17:29:54;13.32;;;7.10;;
38567;SDS011;24338;48.280;10.970;2022-08-25T17:32:23;17.55;;;6.38;;
38567;SDS011;24338;48.280;10.970;2022-08-25T17:34:55;18.38;;;6.85;;
38567;SDS011;24338;48.280;10.970;2022-08-25T17:37:22;17.17;;;7.15;;
38567;SDS011;24338;48.280;10.970;2022-08-25T17:39:50;20.15;;;6.00;;
38567;SDS011;24338;48.280;10.970;2022-08-25T17:42:28;13.38;;;6.05;;
38567;SDS011;24338;48.280;10.970;2022-08-25T17:44:56;19.77;;;6.15;;
38567;SDS011;24338;48.280;10.970;2022-08-25T17:47:25;11.68;;;6.45;;
38567;SDS011;24338;48.280;10.970;2022-08-25T17:49:52;16.05;;;6.45;;
38567;SDS011;24338;48.280;10.970;2022-08-25T17:52:19;16.15;;;6.55;;
38567;SDS011;24338;48.280;10.970;2022-08-25T17:54:50;14.35;;;6.53;;
38567;SDS011;24338;48.280;10.970;2022-08-25T17:57:18;14.90;;;7.32;;
38567;SDS011;24338;48.280;10.970;2022-08-25T17:59:46;10.48;;;6.50;;
38567;SDS011;24338;48.280;10.970;2022-08-25T18:02:13;14.95;;;6.53;;
38567;SDS011;24338;48.280;10.970;2022-08-25T18:04:40;14.55;;;6.00;;
38567;SDS011;24338;48.280;10.970;2022-08-25T18:07:08;18.95;;;6.75;;
38567;SDS011;24338;48.280;10.970;2022-08-25T18:09:35;12.05;;;6.30;;
38567;SDS011;24338;48.280;10.970;2022-08-25T18:12:02;16.48;;;6.53;;
38567;SDS011;24338;48.280;10.970;2022-08-25T18:14:29;15.65;;;6.88;;
38567;SDS011;24338;48.280;10.970;2022-08-25T18:16:56;13.77;;;7.32;;
38567;SDS011;24338;48.280;10.970;2022-08-25T18:19:23;18.63;;;7.47;;
38567;SDS011;24338;48.280;10.970;2022-08-25T18:21:50;17.02;;;7.30;;
38567;SDS011;24338;48.280;10.970;2022-08-25T18:24:17;14.80;;;6.43;;
38567;SDS011;24338;48.280;10.970;2022-08-25T18:26:45;17.25;;;7.63;;
38567;SDS011;24338;48.280;10.970;2022-08-25T18:29:12;15.00;;;6.68;;
38567;SDS011;24338;48.280;10.970;2022-08-25T18:31:41;18.95;;;7.75;;
38567;SDS011;24338;48.280;10.970;2022-08-25T18:34:13;20.92;;;8.40;;
38567;SDS011;24338;48.280;10.970;2022-08-25T18:36:41;17.25;;;7.63;;
38567;SDS011;24338;48.280;10.970;2022-08-25T18:39:10;22.30;;;7.50;;
38567;SDS011;24338;48.280;10.970;2022-08-25T18:42:00;18.02;;;7.05;;
38567;SDS011;24338;48.280;10.970;2022-08-25T18:44:28;19.80;;;7.30;;
38567;SDS011;24338;48.280;10.970;2022-08-25T18:46:55;15.23;;;7.05;;
38567;SDS011;24338;48.280;10.970;2022-08-25T18:49:22;17.65;;;7.50;;
38567;SDS011;24338;48.280;10.970;2022-08-25T18:51:54;14.70;;;7.35;;
38567;SDS011;24338;48.280;10.970;2022-08-25T18:54:20;15.45;;;7.75;;
38567;SDS011;24338;48.280;10.970;2022-08-25T18:56:49;15.65;;;7.47;;
38567;SDS011;24338;48.280;10.970;2022-08-25T18:59:19;15.40;;;7.20;;
38567;SDS011;24338;48.280;10.970;2022-08-25T19:01:49;14.93;;;8.10;;
38567;SDS011;24338;48.280;10.970;2022-08-25T19:04:17;15.57;;;7.63;;
38567;SDS011;24338;48.280;10.970;2022-08-25T19:06:45;13.70;;;7.80;;
38567;SDS011;24338;48.280;10.970;2022-08-25T19:09:11;17.23;;;7.55;;
38567;SDS011;24338;48.280;10.970;2022-08-25T19:11:41;15.52;;;8.15;;
38567;SDS011;24338;48.280;10.970;2022-08-25T19:14:08;17.05;;;7.30;;
38567;SDS011;24338;48.280;10.970;2022-08-25T19:16:40;16.30;;;7.25;;
38567;SDS011;24338;48.280;10.970;2022-08-25T19:19:09;12.20;;;8.32;;
38567;SDS011;24338;48.280;10.970;2022-08-25T19:21:41;14.30;;;7.20;;
38567;SDS011;24338;48.280;10.970;2022-08-25T19:24:09;11.52;;;7.55;;
38567;SDS011;24338;48.280;10.970;2022-08-25T19:26:37;12.60;;;7.63;;
38567;SDS011;24338;48.280;10.970;2022-08-25T19:29:11;17.88;;;8.52;;
38567;SDS011;24338;48.280;10.970;2022-08-25T19:31:40;15.90;;;7.60;;
38567;SDS011;24338;48.280;10.970;2022-08-25T19:34:11;14.50;;;9.02;;
38567;SDS011;24338;48.280;10.970;2022-08-25T19:36:45;20.20;;;7.78;;
38567;SDS011;24338;48.280;10.970;2022-08-25T19:39:13;19.90;;;8.90;;
38567;SDS011;24338;48.280;10.970;2022-08-25T19:41:42;15.05;;;8.20;;
38567;SDS011;24338;48.280;10.970;2022-08-25T19:44:09;13.07;;;8.23;;
38567;SDS011;24338;48.280;10.970;2022-08-25T19:46:40;17.57;;;9.03;;
38567;SDS011;24338;48.280;10.970;2022-08-25T19:49:10;17.15;;;8.10;;
38567;SDS011;24338;48.280;10.970;2022-08-25T19:51:42;15.75;;;9.32;;
38567;SDS011;24338;48.280;10.970;2022-08-25T19:54:17;12.50;;;7.93;;
38567;SDS011;24338;48.280;10.970;2022-08-25T19:56:49;18.60;;;9.10;;
38567;SDS011;24338;48.280;10.970;2022-08-25T19:59:24;18.27;;;9.15;;
38567;SDS011;24338;48.280;10.970;2022-08-25T20:02:09;19.23;;;9.65;;
38567;SDS011;24338;48.280;10.970;2022-08-25T20:04:41;18.48;;;8.48;;
38567;SDS011;24338;48.280;10.970;2022-08-25T20:07:15;18.45;;;8.13;;
38567;SDS011;24338;48.280;10.970;2022-08-25T20:09:44;21.77;;;8.95;;
38567;SDS011;24338;48.280;10.970;2022-08-25T20:12:11;15.02;;;8.23;;
38567;SDS011;24338;48.280;10.970;2022-08-25T20:14:43;15.55;;;8.43;;
38567;SDS011;24338;48.280;10.970;2022-08-25T20:17:13;17.85;;;9.82;;
38567;SDS011;24338;48.280;10.970;2022-08-25T20:19:52;15.85;;;8.10;;
38567;SDS011;24338;48.280;10.970;2022-08-25T20:22:21;15.25;;;8.95;;
38567;SDS011;24338;48.280;10.970;2022-08-25T20:24:56;16.00;;;9.15;;
38567;SDS011;24338;48.280;10.970;2022-08-25T20:27:26;15.88;;;8.48;;
38567;SDS011;24338;48.280;10.970;2022-08-25T20:29:57;15.35;;;8.50;;
38567;SDS011;24338;48.280;10.970;2022-08-25T20:32:28;18.38;;;9.15;;
38567;SDS011;24338;48.280;10.970;2022-08-25T20:34:56;15.77;;;8.63;;
38567;SDS011;24338;48.280;10.970;2022-08-25T20:37:23;19.27;;;8.77;;
38567;SDS011;24338;48.280;10.970;2022-08-25T20:39:51;16.77;;;9.27;;
38567;SDS011;24338;48.280;10.970;2022-08-25T20:42:18;20.02;;;8.70;;
38567;SDS011;24338;48.280;10.970;2022-08-25T20:44:45;17.77;;;8.90;;
38567;SDS011;24338;48.280;10.970;2022-08-25T20:47:12;14.65;;;8.70;;
38567;SDS011;24338;48.280;10.970;2022-08-25T20:49:40;13.40;;;9.05;;
38567;SDS011;24338;48.280;10.970;2022-08-25T20:52:11;16.85;;;9.32;;
38567;SDS011;24338;48.280;10.970;2022-08-25T20:54:40;18.25;;;8.98;;
38567;SDS011;24338;48.280;10.970;2022-08-25T20:57:14;15.35;;;9.52;;
38567;SDS011;24338;48.280;10.970;2022-08-25T20:59:42;15.27;;;9.32;;
38567;SDS011;24338;48.280;10.970;2022-08-25T21:02:10;19.23;;;9.98;;
38567;SDS011;24338;48.280;10.970;2022-08-25T21:04:40;15.32;;;9.65;;
38567;SDS011;24338;48.280;10.970;2022-08-25T21:07:15;14.05;;;8.75;;
38567;SDS011;24338;48.280;10.970;2022-08-25T21:09:43;19.35;;;10.05;;
38567;SDS011;24338;48.280;10.970;2022-08-25T21:12:09;15.98;;;9.57;;
38567;SDS011;24338;48.280;10.970;2022-08-25T21:14:37;13.90;;;8.95;;
38567;SDS011;24338;48.280;10.970;2022-08-25T21:17:06;16.50;;;9.35;;
38567;SDS011;24338;48.280;10.970;2022-08-25T21:19:37;17.67;;;9.52;;
38567;SDS011;24338;48.280;10.970;2022-08-25T21:22:05;14.55;;;9.80;;
38567;SDS011;24338;48.280;10.970;2022-08-25T21:24:32;17.45;;;10.30;;
38567;SDS011;24338;48.280;10.970;2022-08-25T21:27:00;16.98;;;10.35;;
